sensor_id;sensor_type;location;lat;lon;timestamp;P1;durP1;ratioP1;P2;durP2;ratioP2
59434;SDS011;45241;49.768;8.636;2023-07-13T00:01:24;1.52;;;0.60;;
59434;SDS011;45241;49.768;8.636;2023-07-13T00:03:50;3.35;;;0.93;;
59434;SDS011;45241;49.768;8.636;2023-07-13T00:06:15;2.63;;;1.00;;
59434;SDS011;45241;49.768;8.636;2023-07-13T00:08:41;1.80;;;0.88;;
59434;SDS011;45241;49.768;8.636;2023-07-13T00:11:06;1.58;;;1.05;;
59434;SDS011;45241;49.768;8.636;2023-07-13T00:13:31;2.63;;;1.10;;
59434;SDS011;45241;49.768;8.636;2023-07-13T00:15:57;3.78;;;1.02;;
59434;SDS011;45241;49.768;8.636;2023-07-13T00:18:23;7.00;;;1.00;;
59434;SDS011;45241;49.768;8.636;2023-07-13T00:20:49;3.28;;;1.05;;
59434;SDS011;45241;49.768;8.636;2023-07-13T00:23:15;4.50;;;0.95;;
59434;SDS011;45241;49.768;8.636;2023-07-13T00:25:40;3.35;;;1.00;;
59434;SDS011;45241;49.768;8.636;2023-07-13T00:28:06;2.75;;;0.95;;
59434;SDS011;45241;49.768;8.636;2023-07-13T00:30:31;3.33;;;0.90;;
59434;SDS011;45241;49.768;8.636;2023-07-13T00:32:56;1.98;;;1.10;;
59434;SDS011;45241;49.768;8.636;2023-07-13T00:35:22;3.10;;;1.00;;
59434;SDS011;45241;49.768;8.636;2023-07-13T00:37:47;1.35;;;0.90;;
59434;SDS011;45241;49.768;8.636;2023-07-13T00:40:13;2.55;;;0.98;;
59434;SDS011;45241;49.768;8.636;2023-07-13T00:42:42;4.38;;;1.25;;
59434;SDS011;45241;49.768;8.636;2023-07-13T00:47:42;1.92;;;0.80;;
59434;SDS011;45241;49.768;8.636;2023-07-13T00:50:10;1.08;;;0.82;;
59434;SDS011;45241;49.768;8.636;2023-07-13T00:52:40;3.15;;;1.10;;
59434;SDS011;45241;49.768;8.636;2023-07-13T00:55:09;1.88;;;1.08;;
59434;SDS011;45241;49.768;8.636;2023-07-13T00:57:36;2.95;;;0.85;;
59434;SDS011;45241;49.768;8.636;2023-07-13T01:00:03;2.47;;;0.90;;
59434;SDS011;45241;49.768;8.636;2023-07-13T01:02:31;2.03;;;1.00;;
59434;SDS011;45241;49.768;8.636;2023-07-13T01:04:58;1.83;;;0.90;;
59434;SDS011;45241;49.768;8.636;2023-07-13T01:07:23;3.22;;;1.00;;
59434;SDS011;45241;49.768;8.636;2023-07-13T01:09:48;2.22;;;0.90;;
59434;SDS011;45241;49.768;8.636;2023-07-13T01:12:14;2.42;;;1.20;;
59434;SDS011;45241;49.768;8.636;2023-07-13T01:14:39;3.38;;;1.00;;
59434;SDS011;45241;49.768;8.636;2023-07-13T01:17:05;2.45;;;0.90;;
59434;SDS011;45241;49.768;8.636;2023-07-13T01:22:05;2.65;;;1.02;;
59434;SDS011;45241;49.768;8.636;2023-07-13T01:24:36;4.00;;;1.17;;
59434;SDS011;45241;49.768;8.636;2023-07-13T01:27:03;3.13;;;1.10;;
59434;SDS011;45241;49.768;8.636;2023-07-13T01:29:31;1.90;;;1.10;;
59434;SDS011;45241;49.768;8.636;2023-07-13T01:31:58;3.22;;;1.23;;
59434;SDS011;45241;49.768;8.636;2023-07-13T01:34:25;1.48;;;1.00;;
59434;SDS011;45241;49.768;8.636;2023-07-13T01:36:50;3.22;;;1.00;;
59434;SDS011;45241;49.768;8.636;2023-07-13T01:39:19;2.13;;;1.13;;
59434;SDS011;45241;49.768;8.636;2023-07-13T01:41:45;2.78;;;1.00;;
59434;SDS011;45241;49.768;8.636;2023-07-13T01:44:11;1.80;;;1.02;;
59434;SDS011;45241;49.768;8.636;2023-07-13T01:46:36;2.15;;;1.10;;
59434;SDS011;45241;49.768;8.636;2023-07-13T01:49:01;2.60;;;1.00;;
59434;SDS011;45241;49.768;8.636;2023-07-13T01:51:27;4.60;;;1.30;;
59434;SDS011;45241;49.768;8.636;2023-07-13T01:53:52;2.58;;;1.20;;
59434;SDS011;45241;49.768;8.636;2023-07-13T01:56:17;1.95;;;1.00;;
59434;SDS011;45241;49.768;8.636;2023-07-13T01:58:44;4.65;;;1.00;;
59434;SDS011;45241;49.768;8.636;2023-07-13T02:01:10;2.55;;;1.13;;
59434;SDS011;45241;49.768;8.636;2023-07-13T02:03:35;3.15;;;1.30;;
59434;SDS011;45241;49.768;8.636;2023-07-13T02:06:00;1.17;;;1.00;;
59434;SDS011;45241;49.768;8.636;2023-07-13T02:08:25;2.58;;;1.40;;
59434;SDS011;45241;49.768;8.636;2023-07-13T02:10:51;1.85;;;1.13;;
59434;SDS011;45241;49.768;8.636;2023-07-13T02:13:16;3.05;;;1.30;;
59434;SDS011;45241;49.768;8.636;2023-07-13T02:15:41;2.53;;;1.35;;
59434;SDS011;45241;49.768;8.636;2023-07-13T02:18:07;2.20;;;1.10;;
59434;SDS011;45241;49.768;8.636;2023-07-13T02:20:32;2.30;;;1.20;;
59434;SDS011;45241;49.768;8.636;2023-07-13T02:22:58;5.93;;;1.45;;
59434;SDS011;45241;49.768;8.636;2023-07-13T02:25:23;2.00;;;1.55;;
59434;SDS011;45241;49.768;8.636;2023-07-13T02:27:50;6.95;;;1.30;;
59434;SDS011;45241;49.768;8.636;2023-07-13T02:30:15;2.30;;;1.30;;
59434;SDS011;45241;49.768;8.636;2023-07-13T02:32:40;2.63;;;1.20;;
59434;SDS011;45241;49.768;8.636;2023-07-13T02:35:06;2.08;;;1.23;;
59434;SDS011;45241;49.768;8.636;2023-07-13T02:37:31;4.55;;;1.38;;
59434;SDS011;45241;49.768;8.636;2023-07-13T02:39:57;2.88;;;1.30;;
59434;SDS011;45241;49.768;8.636;2023-07-13T02:42:22;2.85;;;1.30;;
59434;SDS011;45241;49.768;8.636;2023-07-13T02:44:47;3.67;;;1.40;;
59434;SDS011;45241;49.768;8.636;2023-07-13T02:47:14;2.28;;;1.23;;
59434;SDS011;45241;49.768;8.636;2023-07-13T02:49:39;2.33;;;1.08;;
59434;SDS011;45241;49.768;8.636;2023-07-13T02:52:05;2.95;;;1.45;;
59434;SDS011;45241;49.768;8.636;2023-07-13T02:54:31;1.80;;;1.25;;
59434;SDS011;45241;49.768;8.636;2023-07-13T02:56:56;1.50;;;1.13;;
59434;SDS011;45241;49.768;8.636;2023-07-13T02:59:21;2.15;;;1.35;;
59434;SDS011;45241;49.768;8.636;2023-07-13T03:01:46;6.05;;;1.20;;
59434;SDS011;45241;49.768;8.636;2023-07-13T03:04:12;2.85;;;1.25;;
59434;SDS011;45241;49.768;8.636;2023-07-13T03:06:37;2.88;;;1.40;;
59434;SDS011;45241;49.768;8.636;2023-07-13T03:09:02;1.85;;;1.40;;
59434;SDS011;45241;49.768;8.636;2023-07-13T03:11:29;2.55;;;1.33;;
59434;SDS011;45241;49.768;8.636;2023-07-13T03:13:54;2.83;;;1.30;;
59434;SDS011;45241;49.768;8.636;2023-07-13T03:16:20;3.13;;;1.40;;
59434;SDS011;45241;49.768;8.636;2023-07-13T03:18:46;1.45;;;1.33;;
59434;SDS011;45241;49.768;8.636;2023-07-13T03:21:12;2.45;;;1.65;;
59434;SDS011;45241;49.768;8.636;2023-07-13T03:23:37;3.45;;;1.50;;
59434;SDS011;45241;49.768;8.636;2023-07-13T03:26:16;1.75;;;1.40;;
59434;SDS011;45241;49.768;8.636;2023-07-13T03:28:44;3.28;;;1.40;;
59434;SDS011;45241;49.768;8.636;2023-07-13T03:31:13;2.33;;;1.65;;
59434;SDS011;45241;49.768;8.636;2023-07-13T03:33:44;3.08;;;1.40;;
59434;SDS011;45241;49.768;8.636;2023-07-13T03:36:12;2.78;;;1.30;;
59434;SDS011;45241;49.768;8.636;2023-07-13T03:38:43;2.15;;;1.40;;
59434;SDS011;45241;49.768;8.636;2023-07-13T03:41:11;2.90;;;1.67;;
59434;SDS011;45241;49.768;8.636;2023-07-13T03:43:36;3.40;;;1.20;;
59434;SDS011;45241;49.768;8.636;2023-07-13T03:46:02;2.75;;;1.35;;
59434;SDS011;45241;49.768;8.636;2023-07-13T03:48:27;2.30;;;1.33;;
59434;SDS011;45241;49.768;8.636;2023-07-13T03:50:52;2.03;;;1.38;;
59434;SDS011;45241;49.768;8.636;2023-07-13T03:53:17;1.90;;;1.38;;
59434;SDS011;45241;49.768;8.636;2023-07-13T03:55:44;21.92;;;2.63;;
59434;SDS011;45241;49.768;8.636;2023-07-13T03:58:29;3.28;;;1.48;;
59434;SDS011;45241;49.768;8.636;2023-07-13T04:01:03;2.08;;;1.30;;
59434;SDS011;45241;49.768;8.636;2023-07-13T04:03:30;5.10;;;1.50;;
59434;SDS011;45241;49.768;8.636;2023-07-13T04:05:58;4.03;;;1.33;;
59434;SDS011;45241;49.768;8.636;2023-07-13T04:08:28;2.95;;;1.73;;
59434;SDS011;45241;49.768;8.636;2023-07-13T04:10:55;4.00;;;2.30;;
59434;SDS011;45241;49.768;8.636;2023-07-13T04:13:21;3.03;;;1.60;;
59434;SDS011;45241;49.768;8.636;2023-07-13T04:15:46;2.25;;;1.25;;
59434;SDS011;45241;49.768;8.636;2023-07-13T04:18:12;3.83;;;1.30;;
59434;SDS011;45241;49.768;8.636;2023-07-13T04:20:37;3.78;;;1.67;;
59434;SDS011;45241;49.768;8.636;2023-07-13T04:23:03;2.35;;;1.10;;
59434;SDS011;45241;49.768;8.636;2023-07-13T04:25:28;3.17;;;1.40;;
59434;SDS011;45241;49.768;8.636;2023-07-13T04:27:54;3.28;;;1.50;;
59434;SDS011;45241;49.768;8.636;2023-07-13T04:30:19;3.95;;;1.40;;
59434;SDS011;45241;49.768;8.636;2023-07-13T04:32:45;1.52;;;1.13;;
59434;SDS011;45241;49.768;8.636;2023-07-13T04:35:10;1.55;;;1.25;;
59434;SDS011;45241;49.768;8.636;2023-07-13T04:37:36;3.00;;;1.42;;
59434;SDS011;45241;49.768;8.636;2023-07-13T04:40:01;3.10;;;1.27;;
59434;SDS011;45241;49.768;8.636;2023-07-13T04:42:28;2.40;;;1.40;;
59434;SDS011;45241;49.768;8.636;2023-07-13T04:44:54;2.97;;;1.52;;
59434;SDS011;45241;49.768;8.636;2023-07-13T04:47:19;4.55;;;1.23;;
59434;SDS011;45241;49.768;8.636;2023-07-13T04:49:44;1.98;;;1.38;;
59434;SDS011;45241;49.768;8.636;2023-07-13T04:52:10;4.53;;;1.40;;
59434;SDS011;45241;49.768;8.636;2023-07-13T04:54:36;2.65;;;1.38;;
59434;SDS011;45241;49.768;8.636;2023-07-13T04:57:03;1.75;;;1.27;;
59434;SDS011;45241;49.768;8.636;2023-07-13T04:59:31;2.22;;;1.30;;
59434;SDS011;45241;49.768;8.636;2023-07-13T05:01:57;2.47;;;1.40;;
59434;SDS011;45241;49.768;8.636;2023-07-13T05:04:22;5.03;;;1.20;;
59434;SDS011;45241;49.768;8.636;2023-07-13T05:06:47;2.90;;;1.40;;
59434;SDS011;45241;49.768;8.636;2023-07-13T05:09:12;1.80;;;1.20;;
59434;SDS011;45241;49.768;8.636;2023-07-13T05:11:38;3.00;;;1.30;;
59434;SDS011;45241;49.768;8.636;2023-07-13T05:14:03;2.95;;;1.30;;
59434;SDS011;45241;49.768;8.636;2023-07-13T05:16:28;2.28;;;1.10;;
59434;SDS011;45241;49.768;8.636;2023-07-13T05:18:54;3.95;;;1.55;;
59434;SDS011;45241;49.768;8.636;2023-07-13T05:21:19;3.63;;;1.40;;
59434;SDS011;45241;49.768;8.636;2023-07-13T05:23:45;6.55;;;1.50;;
59434;SDS011;45241;49.768;8.636;2023-07-13T05:26:10;3.83;;;1.30;;
59434;SDS011;45241;49.768;8.636;2023-07-13T05:28:36;6.57;;;1.38;;
59434;SDS011;45241;49.768;8.636;2023-07-13T05:31:02;13.02;;;2.00;;
59434;SDS011;45241;49.768;8.636;2023-07-13T05:33:27;9.40;;;1.95;;
59434;SDS011;45241;49.768;8.636;2023-07-13T05:35:53;12.02;;;2.33;;
59434;SDS011;45241;49.768;8.636;2023-07-13T05:38:18;8.23;;;1.95;;
59434;SDS011;45241;49.768;8.636;2023-07-13T05:40:44;6.13;;;1.70;;
59434;SDS011;45241;49.768;8.636;2023-07-13T05:43:10;6.22;;;1.50;;
59434;SDS011;45241;49.768;8.636;2023-07-13T05:45:37;4.13;;;1.50;;
59434;SDS011;45241;49.768;8.636;2023-07-13T05:48:02;4.72;;;1.45;;
59434;SDS011;45241;49.768;8.636;2023-07-13T05:50:28;4.63;;;1.20;;
59434;SDS011;45241;49.768;8.636;2023-07-13T05:52:53;3.83;;;0.95;;
59434;SDS011;45241;49.768;8.636;2023-07-13T05:55:19;4.30;;;1.10;;
59434;SDS011;45241;49.768;8.636;2023-07-13T05:57:45;1.95;;;1.10;;
59434;SDS011;45241;49.768;8.636;2023-07-13T06:00:10;3.25;;;1.25;;
59434;SDS011;45241;49.768;8.636;2023-07-13T06:02:36;2.50;;;1.10;;
59434;SDS011;45241;49.768;8.636;2023-07-13T06:05:02;3.03;;;1.00;;
59434;SDS011;45241;49.768;8.636;2023-07-13T06:07:27;2.50;;;0.98;;
59434;SDS011;45241;49.768;8.636;2023-07-13T06:09:52;1.42;;;0.90;;
59434;SDS011;45241;49.768;8.636;2023-07-13T06:12:18;3.35;;;1.10;;
59434;SDS011;45241;49.768;8.636;2023-07-13T06:14:43;5.70;;;1.35;;
59434;SDS011;45241;49.768;8.636;2023-07-13T06:17:08;5.10;;;1.10;;
59434;SDS011;45241;49.768;8.636;2023-07-13T06:19:34;2.40;;;1.10;;
59434;SDS011;45241;49.768;8.636;2023-07-13T06:21:59;3.83;;;0.90;;
59434;SDS011;45241;49.768;8.636;2023-07-13T06:24:25;2.13;;;0.93;;
59434;SDS011;45241;49.768;8.636;2023-07-13T06:26:50;3.53;;;1.10;;
59434;SDS011;45241;49.768;8.636;2023-07-13T06:29:16;3.33;;;0.93;;
59434;SDS011;45241;49.768;8.636;2023-07-13T06:31:41;2.08;;;0.90;;
59434;SDS011;45241;49.768;8.636;2023-07-13T06:34:07;2.33;;;0.88;;
59434;SDS011;45241;49.768;8.636;2023-07-13T06:36:32;2.90;;;1.15;;
59434;SDS011;45241;49.768;8.636;2023-07-13T06:38:57;2.00;;;0.80;;
59434;SDS011;45241;49.768;8.636;2023-07-13T06:41:23;2.60;;;0.82;;
59434;SDS011;45241;49.768;8.636;2023-07-13T06:43:50;3.90;;;0.95;;
59434;SDS011;45241;49.768;8.636;2023-07-13T06:46:16;3.17;;;1.00;;
59434;SDS011;45241;49.768;8.636;2023-07-13T06:48:41;3.85;;;1.10;;
59434;SDS011;45241;49.768;8.636;2023-07-13T06:51:07;3.60;;;0.93;;
59434;SDS011;45241;49.768;8.636;2023-07-13T06:53:33;3.45;;;1.00;;
59434;SDS011;45241;49.768;8.636;2023-07-13T06:55:58;4.45;;;1.00;;
59434;SDS011;45241;49.768;8.636;2023-07-13T06:58:23;4.20;;;1.13;;
59434;SDS011;45241;49.768;8.636;2023-07-13T07:00:52;1.73;;;0.93;;
59434;SDS011;45241;49.768;8.636;2023-07-13T07:03:17;3.17;;;1.10;;
59434;SDS011;45241;49.768;8.636;2023-07-13T07:05:43;3.50;;;1.00;;
59434;SDS011;45241;49.768;8.636;2023-07-13T07:08:08;2.17;;;1.10;;
59434;SDS011;45241;49.768;8.636;2023-07-13T07:10:34;2.65;;;1.00;;
59434;SDS011;45241;49.768;8.636;2023-07-13T07:13:00;5.05;;;1.20;;
59434;SDS011;45241;49.768;8.636;2023-07-13T07:15:26;3.97;;;1.40;;
59434;SDS011;45241;49.768;8.636;2023-07-13T07:17:52;4.22;;;0.90;;
59434;SDS011;45241;49.768;8.636;2023-07-13T07:20:17;4.20;;;1.35;;
59434;SDS011;45241;49.768;8.636;2023-07-13T07:22:42;1.85;;;0.80;;
59434;SDS011;45241;49.768;8.636;2023-07-13T07:25:08;1.50;;;0.90;;
59434;SDS011;45241;49.768;8.636;2023-07-13T07:27:33;4.32;;;0.93;;
59434;SDS011;45241;49.768;8.636;2023-07-13T07:29:59;3.00;;;1.00;;
59434;SDS011;45241;49.768;8.636;2023-07-13T07:32:24;2.20;;;0.60;;
59434;SDS011;45241;49.768;8.636;2023-07-13T07:34:49;2.85;;;0.68;;
59434;SDS011;45241;49.768;8.636;2023-07-13T07:37:15;2.55;;;0.85;;
59434;SDS011;45241;49.768;8.636;2023-07-13T07:39:40;2.05;;;0.75;;
59434;SDS011;45241;49.768;8.636;2023-07-13T07:42:06;3.03;;;0.93;;
59434;SDS011;45241;49.768;8.636;2023-07-13T07:44:31;3.28;;;0.90;;
59434;SDS011;45241;49.768;8.636;2023-07-13T07:46:57;3.67;;;0.90;;
59434;SDS011;45241;49.768;8.636;2023-07-13T07:49:22;2.80;;;1.08;;
59434;SDS011;45241;49.768;8.636;2023-07-13T07:51:48;3.15;;;0.75;;
59434;SDS011;45241;49.768;8.636;2023-07-13T07:54:13;2.92;;;0.88;;
59434;SDS011;45241;49.768;8.636;2023-07-13T07:56:39;2.60;;;0.60;;
59434;SDS011;45241;49.768;8.636;2023-07-13T07:59:05;1.92;;;0.80;;
59434;SDS011;45241;49.768;8.636;2023-07-13T08:01:30;3.55;;;1.00;;
59434;SDS011;45241;49.768;8.636;2023-07-13T08:03:56;2.92;;;1.13;;
59434;SDS011;45241;49.768;8.636;2023-07-13T08:06:21;1.80;;;0.85;;
59434;SDS011;45241;49.768;8.636;2023-07-13T08:08:47;2.75;;;0.70;;
59434;SDS011;45241;49.768;8.636;2023-07-13T08:11:12;1.60;;;0.80;;
59434;SDS011;45241;49.768;8.636;2023-07-13T08:13:38;3.47;;;0.80;;
59434;SDS011;45241;49.768;8.636;2023-07-13T08:16:06;1.83;;;0.70;;
59434;SDS011;45241;49.768;8.636;2023-07-13T08:18:32;6.83;;;0.70;;
59434;SDS011;45241;49.768;8.636;2023-07-13T08:20:57;1.60;;;0.90;;
59434;SDS011;45241;49.768;8.636;2023-07-13T08:23:23;1.95;;;0.68;;
59434;SDS011;45241;49.768;8.636;2023-07-13T08:25:51;3.63;;;0.93;;
59434;SDS011;45241;49.768;8.636;2023-07-13T08:30:45;2.88;;;0.90;;
59434;SDS011;45241;49.768;8.636;2023-07-13T08:33:13;1.63;;;0.60;;
59434;SDS011;45241;49.768;8.636;2023-07-13T08:35:42;2.03;;;0.80;;
59434;SDS011;45241;49.768;8.636;2023-07-13T08:38:10;2.95;;;0.90;;
59434;SDS011;45241;49.768;8.636;2023-07-13T08:40:36;4.78;;;1.00;;
59434;SDS011;45241;49.768;8.636;2023-07-13T08:43:01;4.32;;;0.77;;
59434;SDS011;45241;49.768;8.636;2023-07-13T08:48:03;2.60;;;0.80;;
59434;SDS011;45241;49.768;8.636;2023-07-13T08:50:33;6.07;;;0.80;;
59434;SDS011;45241;49.768;8.636;2023-07-13T08:53:05;1.75;;;0.82;;
59434;SDS011;45241;49.768;8.636;2023-07-13T08:55:35;1.65;;;0.60;;
59434;SDS011;45241;49.768;8.636;2023-07-13T08:58:13;1.65;;;0.80;;
59434;SDS011;45241;49.768;8.636;2023-07-13T09:00:53;1.60;;;0.57;;
59434;SDS011;45241;49.768;8.636;2023-07-13T09:10:05;1.55;;;0.52;;
59434;SDS011;45241;49.768;8.636;2023-07-13T09:12:48;1.83;;;0.80;;
59434;SDS011;45241;49.768;8.636;2023-07-13T09:17:56;3.17;;;0.80;;
59434;SDS011;45241;49.768;8.636;2023-07-13T09:20:31;3.42;;;0.70;;
59434;SDS011;45241;49.768;8.636;2023-07-13T09:23:01;2.25;;;0.88;;
59434;SDS011;45241;49.768;8.636;2023-07-13T09:25:30;3.53;;;0.60;;
59434;SDS011;45241;49.768;8.636;2023-07-13T09:28:11;3.72;;;0.88;;
59434;SDS011;45241;49.768;8.636;2023-07-13T09:30:52;1.95;;;0.73;;
59434;SDS011;45241;49.768;8.636;2023-07-13T09:33:23;3.35;;;0.85;;
59434;SDS011;45241;49.768;8.636;2023-07-13T09:35:49;3.20;;;0.90;;
59434;SDS011;45241;49.768;8.636;2023-07-13T09:38:15;2.45;;;0.80;;
59434;SDS011;45241;49.768;8.636;2023-07-13T09:40:46;1.83;;;0.60;;
59434;SDS011;45241;49.768;8.636;2023-07-13T09:43:21;2.47;;;0.75;;
59434;SDS011;45241;49.768;8.636;2023-07-13T09:45:47;3.72;;;0.80;;
59434;SDS011;45241;49.768;8.636;2023-07-13T09:48:13;2.22;;;0.80;;
59434;SDS011;45241;49.768;8.636;2023-07-13T09:50:40;3.63;;;0.68;;
59434;SDS011;45241;49.768;8.636;2023-07-13T09:53:11;1.80;;;0.70;;
59434;SDS011;45241;49.768;8.636;2023-07-13T09:55:41;5.13;;;1.20;;
59434;SDS011;45241;49.768;8.636;2023-07-13T09:58:10;3.03;;;0.70;;
59434;SDS011;45241;49.768;8.636;2023-07-13T10:00:36;4.10;;;0.93;;
59434;SDS011;45241;49.768;8.636;2023-07-13T10:03:03;6.13;;;0.90;;
59434;SDS011;45241;49.768;8.636;2023-07-13T10:05:43;3.13;;;0.90;;
59434;SDS011;45241;49.768;8.636;2023-07-13T10:08:28;3.13;;;0.90;;
59434;SDS011;45241;49.768;8.636;2023-07-13T10:11:09;1.23;;;0.70;;
59434;SDS011;45241;49.768;8.636;2023-07-13T10:13:44;1.83;;;0.80;;
59434;SDS011;45241;49.768;8.636;2023-07-13T10:16:15;1.98;;;0.70;;
59434;SDS011;45241;49.768;8.636;2023-07-13T10:18:43;2.85;;;0.73;;
59434;SDS011;45241;49.768;8.636;2023-07-13T10:21:17;2.63;;;0.70;;
59434;SDS011;45241;49.768;8.636;2023-07-13T10:23:47;1.83;;;0.70;;
59434;SDS011;45241;49.768;8.636;2023-07-13T10:26:17;3.83;;;0.90;;
59434;SDS011;45241;49.768;8.636;2023-07-13T10:28:50;2.55;;;0.60;;
59434;SDS011;45241;49.768;8.636;2023-07-13T10:31:20;1.85;;;0.80;;
59434;SDS011;45241;49.768;8.636;2023-07-13T10:33:46;1.38;;;0.80;;
59434;SDS011;45241;49.768;8.636;2023-07-13T10:38:37;3.17;;;0.87;;
59434;SDS011;45241;49.768;8.636;2023-07-13T10:41:04;2.75;;;0.80;;
59434;SDS011;45241;49.768;8.636;2023-07-13T10:43:42;0.85;;;0.57;;
59434;SDS011;45241;49.768;8.636;2023-07-13T10:46:11;2.92;;;0.70;;
59434;SDS011;45241;49.768;8.636;2023-07-13T10:48:39;2.33;;;1.00;;
59434;SDS011;45241;49.768;8.636;2023-07-13T10:51:07;2.85;;;0.88;;
59434;SDS011;45241;49.768;8.636;2023-07-13T10:53:36;3.63;;;0.85;;
59434;SDS011;45241;49.768;8.636;2023-07-13T11:03:34;2.07;;;0.80;;
59434;SDS011;45241;49.768;8.636;2023-07-13T11:18:40;6.03;;;0.80;;
59434;SDS011;45241;49.768;8.636;2023-07-13T11:21:20;2.83;;;0.82;;
59434;SDS011;45241;49.768;8.636;2023-07-13T11:23:52;2.35;;;0.90;;
59434;SDS011;45241;49.768;8.636;2023-07-13T11:29:08;1.27;;;0.90;;
59434;SDS011;45241;49.768;8.636;2023-07-13T11:31:55;2.63;;;1.10;;
59434;SDS011;45241;49.768;8.636;2023-07-13T11:34:31;2.17;;;0.63;;
59434;SDS011;45241;49.768;8.636;2023-07-13T11:37:00;2.63;;;0.50;;
59434;SDS011;45241;49.768;8.636;2023-07-13T11:39:32;3.03;;;0.70;;
59434;SDS011;45241;49.768;8.636;2023-07-13T11:42:01;4.70;;;0.70;;
59434;SDS011;45241;49.768;8.636;2023-07-13T11:44:30;1.95;;;0.60;;
59434;SDS011;45241;49.768;8.636;2023-07-13T11:46:58;1.92;;;0.70;;
59434;SDS011;45241;49.768;8.636;2023-07-13T11:49:28;1.85;;;0.90;;
59434;SDS011;45241;49.768;8.636;2023-07-13T11:51:55;1.58;;;0.65;;
59434;SDS011;45241;49.768;8.636;2023-07-13T11:56:55;3.55;;;0.93;;
59434;SDS011;45241;49.768;8.636;2023-07-13T11:59:23;1.67;;;0.80;;
59434;SDS011;45241;49.768;8.636;2023-07-13T12:01:49;2.38;;;0.60;;
59434;SDS011;45241;49.768;8.636;2023-07-13T12:04:25;1.25;;;0.80;;
59434;SDS011;45241;49.768;8.636;2023-07-13T12:06:57;4.10;;;1.02;;
59434;SDS011;45241;49.768;8.636;2023-07-13T12:09:28;4.07;;;0.88;;
59434;SDS011;45241;49.768;8.636;2023-07-13T12:11:55;3.50;;;0.80;;
59434;SDS011;45241;49.768;8.636;2023-07-13T12:14:23;2.35;;;0.85;;
59434;SDS011;45241;49.768;8.636;2023-07-13T12:16:50;1.00;;;0.60;;
59434;SDS011;45241;49.768;8.636;2023-07-13T12:19:20;2.70;;;0.80;;
59434;SDS011;45241;49.768;8.636;2023-07-13T12:21:47;2.20;;;0.70;;
59434;SDS011;45241;49.768;8.636;2023-07-13T12:24:14;1.15;;;0.70;;
59434;SDS011;45241;49.768;8.636;2023-07-13T12:26:41;3.35;;;0.80;;
59434;SDS011;45241;49.768;8.636;2023-07-13T12:29:07;2.65;;;0.95;;
59434;SDS011;45241;49.768;8.636;2023-07-13T12:31:37;2.13;;;0.70;;
59434;SDS011;45241;49.768;8.636;2023-07-13T12:34:10;1.75;;;0.93;;
59434;SDS011;45241;49.768;8.636;2023-07-13T12:36:38;3.63;;;0.85;;
59434;SDS011;45241;49.768;8.636;2023-07-13T12:39:45;2.15;;;0.80;;
59434;SDS011;45241;49.768;8.636;2023-07-13T12:42:20;1.95;;;0.95;;
59434;SDS011;45241;49.768;8.636;2023-07-13T12:47:22;1.80;;;0.70;;
59434;SDS011;45241;49.768;8.636;2023-07-13T12:49:49;4.15;;;0.80;;
59434;SDS011;45241;49.768;8.636;2023-07-13T12:52:20;2.45;;;0.93;;
59434;SDS011;45241;49.768;8.636;2023-07-13T12:54:54;1.67;;;0.68;;
59434;SDS011;45241;49.768;8.636;2023-07-13T12:57:25;1.90;;;0.93;;
59434;SDS011;45241;49.768;8.636;2023-07-13T12:59:54;2.70;;;0.90;;
59434;SDS011;45241;49.768;8.636;2023-07-13T13:04:55;2.60;;;1.02;;
59434;SDS011;45241;49.768;8.636;2023-07-13T13:07:21;2.50;;;0.80;;
59434;SDS011;45241;49.768;8.636;2023-07-13T13:09:48;5.35;;;0.90;;
59434;SDS011;45241;49.768;8.636;2023-07-13T13:12:13;2.55;;;0.75;;
59434;SDS011;45241;49.768;8.636;2023-07-13T13:14:40;2.47;;;0.98;;
59434;SDS011;45241;49.768;8.636;2023-07-13T13:17:11;1.77;;;0.65;;
59434;SDS011;45241;49.768;8.636;2023-07-13T13:19:44;1.30;;;0.88;;
59434;SDS011;45241;49.768;8.636;2023-07-13T13:22:10;2.60;;;0.75;;
59434;SDS011;45241;49.768;8.636;2023-07-13T13:24:35;4.03;;;1.10;;
59434;SDS011;45241;49.768;8.636;2023-07-13T13:27:00;2.50;;;1.10;;
59434;SDS011;45241;49.768;8.636;2023-07-13T13:29:27;1.33;;;0.60;;
59434;SDS011;45241;49.768;8.636;2023-07-13T13:31:53;1.35;;;0.68;;
59434;SDS011;45241;49.768;8.636;2023-07-13T13:34:19;3.00;;;1.05;;
59434;SDS011;45241;49.768;8.636;2023-07-13T13:36:50;2.15;;;0.70;;
59434;SDS011;45241;49.768;8.636;2023-07-13T13:41:50;3.40;;;0.90;;
59434;SDS011;45241;49.768;8.636;2023-07-13T13:44:17;4.25;;;1.10;;
59434;SDS011;45241;49.768;8.636;2023-07-13T13:46:50;2.35;;;1.10;;
59434;SDS011;45241;49.768;8.636;2023-07-13T13:49:20;4.90;;;0.80;;
59434;SDS011;45241;49.768;8.636;2023-07-13T13:51:50;2.35;;;0.80;;
59434;SDS011;45241;49.768;8.636;2023-07-13T13:54:17;2.10;;;1.00;;
59434;SDS011;45241;49.768;8.636;2023-07-13T13:56:46;2.63;;;0.98;;
59434;SDS011;45241;49.768;8.636;2023-07-13T13:59:15;1.52;;;0.85;;
59434;SDS011;45241;49.768;8.636;2023-07-13T14:01:45;2.30;;;0.98;;
59434;SDS011;45241;49.768;8.636;2023-07-13T14:04:15;4.88;;;0.90;;
59434;SDS011;45241;49.768;8.636;2023-07-13T14:09:12;1.42;;;0.77;;
59434;SDS011;45241;49.768;8.636;2023-07-13T14:11:39;1.48;;;0.70;;
59434;SDS011;45241;49.768;8.636;2023-07-13T14:14:16;2.75;;;0.85;;
59434;SDS011;45241;49.768;8.636;2023-07-13T14:16:45;2.25;;;0.80;;
59434;SDS011;45241;49.768;8.636;2023-07-13T14:19:11;3.22;;;1.00;;
59434;SDS011;45241;49.768;8.636;2023-07-13T14:21:39;1.50;;;0.73;;
59434;SDS011;45241;49.768;8.636;2023-07-13T14:24:04;3.17;;;0.93;;
59434;SDS011;45241;49.768;8.636;2023-07-13T14:26:31;2.97;;;0.77;;
59434;SDS011;45241;49.768;8.636;2023-07-13T14:29:00;3.25;;;0.88;;
59434;SDS011;45241;49.768;8.636;2023-07-13T14:31:26;3.45;;;1.00;;
59434;SDS011;45241;49.768;8.636;2023-07-13T14:33:53;1.92;;;0.63;;
59434;SDS011;45241;49.768;8.636;2023-07-13T14:39:16;5.38;;;0.90;;
59434;SDS011;45241;49.768;8.636;2023-07-13T14:41:44;2.03;;;0.75;;
59434;SDS011;45241;49.768;8.636;2023-07-13T14:44:13;2.30;;;0.70;;
59434;SDS011;45241;49.768;8.636;2023-07-13T14:46:39;1.67;;;0.80;;
59434;SDS011;45241;49.768;8.636;2023-07-13T14:49:12;2.67;;;0.75;;
59434;SDS011;45241;49.768;8.636;2023-07-13T14:51:38;3.80;;;0.95;;
59434;SDS011;45241;49.768;8.636;2023-07-13T14:54:04;3.70;;;0.77;;
59434;SDS011;45241;49.768;8.636;2023-07-13T14:56:30;4.57;;;0.80;;
59434;SDS011;45241;49.768;8.636;2023-07-13T14:58:56;1.98;;;0.65;;
59434;SDS011;45241;49.768;8.636;2023-07-13T15:01:21;2.80;;;0.60;;
59434;SDS011;45241;49.768;8.636;2023-07-13T15:03:48;3.03;;;0.93;;
59434;SDS011;45241;49.768;8.636;2023-07-13T15:06:15;3.30;;;1.00;;
59434;SDS011;45241;49.768;8.636;2023-07-13T15:08:42;1.23;;;0.68;;
59434;SDS011;45241;49.768;8.636;2023-07-13T15:11:08;2.28;;;1.00;;
59434;SDS011;45241;49.768;8.636;2023-07-13T15:13:36;2.60;;;0.85;;
59434;SDS011;45241;49.768;8.636;2023-07-13T15:16:03;2.75;;;0.75;;
59434;SDS011;45241;49.768;8.636;2023-07-13T15:18:29;1.70;;;0.90;;
59434;SDS011;45241;49.768;8.636;2023-07-13T15:20:55;1.67;;;0.75;;
59434;SDS011;45241;49.768;8.636;2023-07-13T15:23:22;2.97;;;0.98;;
59434;SDS011;45241;49.768;8.636;2023-07-13T15:25:48;1.33;;;0.70;;
59434;SDS011;45241;49.768;8.636;2023-07-13T15:28:14;4.38;;;0.98;;
59434;SDS011;45241;49.768;8.636;2023-07-13T15:30:40;2.92;;;0.80;;
59434;SDS011;45241;49.768;8.636;2023-07-13T15:33:12;2.25;;;0.60;;
59434;SDS011;45241;49.768;8.636;2023-07-13T15:35:42;1.88;;;0.70;;
59434;SDS011;45241;49.768;8.636;2023-07-13T15:38:15;2.08;;;0.68;;
59434;SDS011;45241;49.768;8.636;2023-07-13T15:40:42;2.63;;;0.93;;
59434;SDS011;45241;49.768;8.636;2023-07-13T15:43:11;3.05;;;0.68;;
59434;SDS011;45241;49.768;8.636;2023-07-13T15:45:38;3.90;;;0.60;;
59434;SDS011;45241;49.768;8.636;2023-07-13T15:48:15;0.85;;;0.50;;
59434;SDS011;45241;49.768;8.636;2023-07-13T15:50:46;2.83;;;0.70;;